Allensburg, Ohio
Current Conditions -  °F | °C
As of 4:54 AM on Thursday 23 Oct 2014 (Local Time) from KILN Reporting Station
Few Clouds Few Clouds  
Wind Chill:   Ceiling: Unl
Heat Index:   Visibility: 10mi
Dew Point:   Wind: 6mph
Humidity: 82%   Direction: 340°NNW
Pressure: 30.23"   Gusts: NA
Location:  39.1546°N, 83.569°W
Report Text: KILN 230854Z AUTO 34005KT 10SM FEW032 06/03 A3023 RMK AO2 SLP249 T00610033 58004
Loading
Personal Weather Stations






























Interactive Weather Map
Tropical Storm Tracking
New forecast layout! Learn more

10-Day Weather Forecast

Advertisements
Track Severe Weather on mobile